Česky Dansk Deutsch English Español Suomi Français Magyar Italiano Nederlands norsk Polski Português svenska Türkçe

 

Het Weer

Turaif (Saudi-Arabië)

00:00, 10 augustus 2016 (GMT)

NWNNE
WE
SWSSE
Home            
Turaif H-4'Irwaished Guriat H-5'Safawi Arar Mafraq Al-Jouf Queen Alia Airport Amman Airport Damascus Int. Airport Irbid Palmyra Ma'An Galilee / Pina Jerusalem Airport Ben-Gurion International Airport Sde-Haifa Haifa Tel Aviv / Sde-Dov Airport Beer-Sheva Beyrouth Aeroport Ovda Tabuk Aqaba Airport

Om een weerknop op uw website of weblog te plaatsen, copieer onderstaande code en plak die in uw pagina. In het eerste vakje staat HTML-code, in het tweede vakje UBB-code.


Add to Google

Details

Wind speed:3 bf, 8 kn, 4.1 m/s, 9.2 miles/h, 14.8 km/h
Wind direction:N, 360°
Visibility:Greater than 10000 m, 10 km, 32800 ft, 6.2 miles
Clouds:CAVOC
Temperature:27°C, 81°F
Gefühlte Temperatur:27°C, 81°F
Dew-point:13°C, 55°F
Atmospheric pressure:1009 hPa, 756.8 mmHg, 29.80 inHg, 0.996 atm
Relative humidity:42.0 %
METAR:OETR 100000Z 36008KT CAVOK 27/13 Q1009 NOSIG

Snelkoppelingen

Actuele weersinformatie van de hele wereld. Voeg locaties toe met het plus (+) symbool. Deze snelkoppelingen kunnen worden toegevoegd aan Google.

Lid van de Technetium groep

website free tracking
StatCounter NetStat W3C Validator

16-07-2018 02:36:41
astro.technetium.be money.technetium.be phote.technetium.be tafeltennistafel.technetium.be www.ligfiets.net